Time;durP1;ratioP1;P1;durP2;ratioP2;P2;SDS_P1;SDS_P2;PMS_P1;PMS_P2;Temp;Humidity;BMP_temperature;BMP_pressure;BME280_temperature;BME280_humidity;BME280_pressure;Samples;Min_cycle;Max_cycle;Signal;HPM_P1;HPM_P2
2023/06/18 00:01:45;;;;;;;11.13;7.43;;;;;;;9.69;100.00;96418.09;10575869;28;20249;-74
2023/06/18 00:06:45;;;;;;;8.37;7.47;;;;;;;9.63;100.00;96417.78;10575732;28;20182;-74
2023/06/18 00:11:45;;;;;;;9.10;7.90;;;;;;;9.50;100.00;96421.81;10575487;28;20182;-74
2023/06/18 00:16:46;;;;;;;10.00;7.27;;;;;;;9.54;100.00;96421.34;10575930;28;20227;-74
2023/06/18 00:21:47;;;;;;;10.20;7.07;;;;;;;9.50;100.00;96421.81;10575556;28;20535;-74
2023/06/18 00:26:48;;;;;;;8.13;7.10;;;;;;;9.52;100.00;96414.63;10575511;28;20190;-74
2023/06/18 00:31:48;;;;;;;8.70;7.43;;;;;;;9.53;100.00;96414.47;10556287;28;20263;-74
2023/06/18 00:36:50;;;;;;;6.93;6.23;;;;;;;9.55;100.00;96425.56;10557244;28;20226;-74
2023/06/18 00:41:50;;;;;;;7.63;6.83;;;;;;;9.56;100.00;96410.72;10556613;28;20565;-74
2023/06/18 00:46:51;;;;;;;6.50;5.77;;;;;;;9.54;100.00;96413.50;10557379;28;20182;-74
2023/06/18 00:51:52;;;;;;;7.33;6.60;;;;;;;9.43;100.00;96411.97;10582870;28;20191;-75
2023/06/18 00:56:52;;;;;;;8.23;7.03;;;;;;;9.45;100.00;96409.22;10564286;28;20210;-74
2023/06/18 01:01:54;;;;;;;6.77;6.17;;;;;;;9.50;100.00;96396.47;10581896;28;20705;-74
2023/06/18 01:06:55;;;;;;;10.90;6.43;;;;;;;9.46;100.00;96393.34;10582091;28;20193;-74
2023/06/18 01:11:57;;;;;;;9.77;6.57;;;;;;;9.35;100.00;96401.47;10563902;28;20248;-74
2023/06/18 01:16:58;;;;;;;8.67;6.70;;;;;;;9.32;100.00;96398.34;10546790;28;20585;-74
2023/06/18 01:22:04;;;;;;;11.73;7.50;;;;;;;9.26;100.00;96398.00;10546314;28;20186;-74
2023/06/18 01:27:05;;;;;;;7.67;6.90;;;;;;;9.33;100.00;96405.22;10563450;28;20182;-74
2023/06/18 01:32:05;;;;;;;8.90;6.87;;;;;;;9.34;100.00;96407.69;10562411;28;20588;-74
2023/06/18 01:37:14;;;;;;;12.00;7.67;;;;;;;9.21;100.00;96400.25;10581187;28;20225;-74
2023/06/18 01:42:16;;;;;;;9.13;6.70;;;;;;;9.13;100.00;96410.69;10580634;28;20745;-74
2023/06/18 01:47:18;;;;;;;8.47;5.83;;;;;;;9.04;100.00;96414.22;10562733;28;20178;-73
2023/06/18 01:52:19;;;;;;;9.07;6.57;;;;;;;9.02;100.00;96414.38;10562278;28;20232;-74
2023/06/18 01:57:20;;;;;;;8.63;6.50;;;;;;;9.02;100.00;96419.59;10562507;28;20209;-74
2023/06/18 02:02:20;;;;;;;10.30;7.00;;;;;;;9.04;100.00;96422.06;10560344;28;20229;-74
2023/06/18 02:07:21;;;;;;;8.87;7.30;;;;;;;9.09;100.00;96414.56;10579472;28;20194;-74
2023/06/18 02:12:21;;;;;;;8.63;6.67;;;;;;;9.05;100.00;96413.22;10561240;28;20288;-74
2023/06/18 02:17:21;;;;;;;9.20;7.23;;;;;;;9.04;100.00;96427.28;10561607;28;20328;-74
2023/06/18 02:22:23;;;;;;;9.27;7.83;;;;;;;9.01;100.00;96420.56;10578815;28;20193;-74
2023/06/18 02:27:25;;;;;;;8.33;6.90;;;;;;;8.99;100.00;96417.28;10579281;28;20181;-74
2023/06/18 02:32:28;;;;;;;7.60;6.13;;;;;;;9.01;100.00;96414.53;10578726;28;20182;-74
2023/06/18 02:37:29;;;;;;;13.50;7.63;;;;;;;8.95;100.00;96407.31;10560209;28;20222;-73
2023/06/18 02:42:31;;;;;;;10.27;7.77;;;;;;;8.87;100.00;96410.69;10558790;28;20194;-74
2023/06/18 02:47:32;;;;;;;9.63;8.43;;;;;;;8.86;100.00;96414.25;10549973;28;20643;-74
2023/06/18 02:52:32;;;;;;;8.37;7.47;;;;;;;8.79;100.00;96419.28;10535503;28;20187;-73
2023/06/18 02:57:33;;;;;;;9.77;7.70;;;;;;;8.86;100.00;96419.47;10516815;28;20221;-73
2023/06/18 03:02:34;;;;;;;11.20;7.30;;;;;;;8.87;100.00;96426.34;10534512;28;20280;-74
2023/06/18 03:07:37;;;;;;;9.77;8.27;;;;;;;8.85;100.00;96429.13;10514123;28;20197;-74
2023/06/18 03:12:37;;;;;;;10.30;8.33;;;;;;;8.86;100.00;96425.50;10512078;28;20186;-73
2023/06/18 03:17:49;;;;;;;9.93;8.37;;;;;;;8.85;100.00;96431.72;10512384;28;20226;-73
2023/06/18 03:22:50;;;;;;;9.03;8.00;;;;;;;8.87;100.00;96437.63;10512286;28;20197;-74
2023/06/18 03:27:51;;;;;;;10.07;8.30;;;;;;;8.87;100.00;96439.41;10519489;28;20203;-74
2023/06/18 03:32:56;;;;;;;8.43;6.80;;;;;;;8.82;100.00;96442.50;10553792;28;20941;-73
2023/06/18 03:37:57;;;;;;;14.33;8.13;;;;;;;8.93;100.00;96441.41;10572289;28;20713;-74
2023/06/18 03:42:58;;;;;;;8.60;7.67;;;;;;;8.97;100.00;96447.97;10553887;28;20190;-74
2023/06/18 03:47:59;;;;;;;11.60;8.77;;;;;;;9.06;100.00;96441.00;10553775;28;20185;-74
2023/06/18 03:53:04;;;;;;;9.60;8.53;;;;;;;9.16;100.00;96449.56;10537366;28;20236;-74
2023/06/18 03:58:05;;;;;;;9.00;7.80;;;;;;;9.33;100.00;96436.59;10553667;28;20312;-74
2023/06/18 04:03:06;;;;;;;9.33;7.93;;;;;;;9.47;100.00;96441.22;10555307;28;20321;-75
2023/06/18 04:08:07;;;;;;;10.10;7.63;;;;;;;9.62;100.00;96436.25;10575075;28;20180;-74
2023/06/18 04:13:07;;;;;;;12.87;8.10;;;;;;;9.80;100.00;96433.50;10557234;28;20280;-74
2023/06/18 04:18:08;;;;;;;8.83;7.40;;;;;;;9.91;100.00;96435.03;10556980;28;20214;-74
2023/06/18 04:23:08;;;;;;;9.53;7.37;;;;;;;10.05;100.00;96441.44;10558793;28;20192;-74
2023/06/18 04:28:09;;;;;;;10.40;7.07;;;;;;;10.16;100.00;96439.34;10563360;28;20238;-74
2023/06/18 04:33:10;;;;;;;9.23;7.90;;;;;;;10.28;100.00;96439.84;10582504;28;20261;-74
2023/06/18 04:38:11;;;;;;;9.70;7.03;;;;;;;10.44;100.00;96435.66;10564889;28;20209;-74
2023/06/18 04:43:12;;;;;;;8.23;7.30;;;;;;;10.65;100.00;96420.25;10564283;28;20189;-74
2023/06/18 04:48:18;;;;;;;9.10;7.37;;;;;;;10.92;100.00;96435.81;10564267;28;20652;-74
2023/06/18 04:53:18;;;;;;;8.53;7.67;;;;;;;11.16;100.00;96434.97;10563888;28;20231;-75
2023/06/18 04:58:20;;;;;;;11.70;7.80;;;;;;;11.39;100.00;96435.06;10564098;28;20222;-75
2023/06/18 05:03:21;;;;;;;9.00;7.80;;;;;;;11.67;100.00;96427.59;10563204;28;20229;-75
2023/06/18 05:08:22;;;;;;;7.95;7.15;;;;;;;12.03;100.00;96421.06;10564193;28;20547;-75
2023/06/18 05:13:23;;;;;;;8.63;6.75;;;;;;;12.37;100.00;96438.25;10563202;28;20190;-75
2023/06/18 05:18:24;;;;;;;8.75;7.75;;;;;;;12.69;100.00;96441.63;10563257;28;20217;-75
2023/06/18 05:23:25;;;;;;;9.65;7.43;;;;;;;12.99;100.00;96437.28;10562980;28;20178;-75
2023/06/18 05:28:27;;;;;;;13.73;6.30;;;;;;;13.30;100.00;96428.44;10562547;28;20182;-76
2023/06/18 05:33:28;;;;;;;8.77;6.82;;;;;;;13.56;100.00;96426.19;10562431;28;20658;-75
2023/06/18 05:38:31;;;;;;;9.15;7.10;;;;;;;13.90;100.00;96421.34;10562120;28;20603;-75
2023/06/18 05:43:32;;;;;;;7.55;6.78;;;;;;;14.19;100.00;96425.72;10561947;28;20186;-76
2023/06/18 05:48:35;;;;;;;7.65;6.68;;;;;;;14.62;100.00;96428.44;10561951;28;20193;-76
2023/06/18 05:53:45;;;;;;;8.45;7.35;;;;;;;15.12;100.00;96440.78;10561958;28;20194;-76
2023/06/18 05:58:47;;;;;;;8.07;6.85;;;;;;;15.44;100.00;96433.28;10561067;28;20218;-76
2023/06/18 06:03:48;;;;;;;9.95;7.20;;;;;;;15.90;100.00;96440.66;10561060;28;20226;-75
2023/06/18 06:08:48;;;;;;;10.27;6.75;;;;;;;16.14;100.00;96431.41;10561279;28;20185;-76
2023/06/18 06:13:49;;;;;;;9.23;7.05;;;;;;;16.82;100.00;96435.78;10560285;28;20201;-76
2023/06/18 06:18:50;;;;;;;8.50;6.85;;;;;;;17.17;98.88;96437.47;10561018;28;20590;-76
2023/06/18 06:23:52;;;;;;;10.80;6.70;;;;;;;18.23;93.35;96425.75;10560284;28;20185;-76
2023/06/18 06:28:52;;;;;;;6.65;5.97;;;;;;;19.46;78.64;96365.16;10560353;28;20185;-76
2023/06/18 06:33:52;;;;;;;8.55;5.57;;;;;;;20.65;72.05;96351.34;10559911;28;20238;-76
2023/06/18 06:38:53;;;;;;;7.32;6.55;;;;;;;21.98;63.83;96293.94;10543351;28;20320;-77
2023/06/18 06:43:53;;;;;;;12.45;6.18;;;;;;;21.10;66.93;96323.38;10559750;28;20241;-77
2023/06/18 06:49:11;;;;;;;6.50;5.30;;;;;;;21.90;66.96;96350.34;10559292;28;20217;-77
2023/06/18 06:54:30;;;;;;;7.85;5.43;;;;;;;22.30;65.80;96352.13;10562918;28;20197;-78
2023/06/18 06:59:31;;;;;;;7.10;6.18;;;;;;;23.12;57.40;96253.81;10558855;28;20681;-78
2023/06/18 07:04:31;;;;;;;8.57;6.47;;;;;;;24.47;53.74;96244.25;10576940;28;20317;-77
2023/06/18 07:09:31;;;;;;;8.10;5.50;;;;;;;24.90;54.64;96279.91;10576518;28;20478;-78
2023/06/18 07:14:32;;;;;;;9.83;6.33;;;;;;;26.05;49.92;96222.94;10577071;28;20439;-78
2023/06/18 07:19:32;;;;;;;6.37;5.87;;;;;;;23.85;57.37;96307.09;10558574;28;20488;-78
2023/06/18 07:24:32;;;;;;;7.60;5.70;;;;;;;25.04;53.84;96279.44;10576513;28;20441;-78
2023/06/18 07:29:33;;;;;;;9.10;6.57;;;;;;;23.34;58.76;96317.97;10576689;28;20582;-78
2023/06/18 07:34:33;;;;;;;6.57;5.70;;;;;;;24.47;55.93;96300.47;10575693;28;20456;-78
2023/06/18 07:39:33;;;;;;;8.83;6.97;;;;;;;24.80;52.64;96257.59;10575949;28;20459;-78
2023/06/18 07:44:34;;;;;;;7.90;6.40;;;;;;;25.96;50.69;96246.81;10540972;28;20546;-77
2023/06/18 07:49:34;;;;;;;9.27;6.50;;;;;;;25.47;52.38;96277.53;10576153;28;20479;-77
2023/06/18 07:54:35;;;;;;;8.97;6.23;;;;;;;26.05;49.26;96226.44;10556908;28;20443;-77
2023/06/18 07:59:35;;;;;;;9.68;5.88;;;;;;;26.11;48.34;96216.50;10580863;28;20531;-77
2023/06/18 08:04:35;;;;;;;10.33;7.10;;;;;;;25.03;49.73;96214.31;10564744;28;20315;-77
2023/06/18 08:09:36;;;;;;;7.20;6.20;;;;;;;24.69;51.10;96229.94;10563898;28;20555;-78
2023/06/18 08:14:36;;;;;;;8.50;7.30;;;;;;;24.47;50.52;96228.16;10564429;28;20190;-77
2023/06/18 08:19:36;;;;;;;7.27;6.00;;;;;;;25.24;51.45;96274.19;10579761;28;20590;-77
2023/06/18 08:24:37;;;;;;;8.07;7.27;;;;;;;25.23;48.58;96204.72;10582859;28;20447;-77
2023/06/18 08:29:37;;;;;;;9.85;6.57;;;;;;;24.63;51.16;96247.03;10582685;28;20467;-77
2023/06/18 08:34:42;;;;;;;7.85;6.38;;;;;;;24.30;50.58;96222.13;10582453;28;20190;-78
2023/06/18 08:39:42;;;;;;;9.32;6.85;;;;;;;23.89;52.36;96253.91;10580064;28;20209;-78
2023/06/18 08:44:45;;;;;;;12.43;7.03;;;;;;;24.92;51.03;96260.88;10579069;28;20657;-80
2023/06/18 08:49:47;;;;;;;9.70;7.45;;;;;;;22.83;53.45;96229.09;10541468;28;20498;-80
2023/06/18 08:54:52;;;;;;;10.85;7.38;;;;;;;24.22;51.24;96255.53;10520349;28;20187;-79
2023/06/18 08:59:54;;;;;;;10.82;6.80;;;;;;;25.08;49.45;96240.31;10522129;28;20182;-79
2023/06/18 09:11:06;;;;;;;6.68;6.07;;;;;;;24.61;50.55;96249.16;10539620;28;20608;-78
2023/06/18 09:16:06;;;;;;;9.85;6.10;;;;;;;25.75;46.41;96198.44;10522048;28;20186;-79
2023/06/18 09:21:06;;;;;;;7.13;6.43;;;;;;;27.23;44.94;96212.00;10539221;28;20858;-79
2023/06/18 09:26:07;;;;;;;8.38;6.30;;;;;;;27.90;43.21;96198.19;10538993;28;20214;-79
2023/06/18 09:31:07;;;;;;;9.40;6.43;;;;;;;26.19;45.86;96189.13;10538982;28;20190;-79
2023/06/18 09:36:08;;;;;;;8.45;5.90;;;;;;;27.34;44.41;96199.34;10519464;28;20483;-79
2023/06/18 09:41:16;;;;;;;6.35;5.75;;;;;;;26.96;42.13;96121.78;10520742;28;20206;-79
2023/06/18 09:46:18;;;;;;;10.52;5.90;;;;;;;26.20;44.27;96153.13;10538569;28;20257;-79
2023/06/18 09:51:21;;;;;;;9.10;5.97;;;;;;;25.34;44.01;96106.41;10520208;28;20198;-79
2023/06/18 09:56:21;;;;;;;9.70;5.97;;;;;;;24.97;43.47;96102.00;10519861;28;20236;-79
2023/06/18 10:01:22;;;;;;;6.47;5.38;;;;;;;27.33;43.24;96177.00;10537665;28;20317;-79
2023/06/18 10:06:23;;;;;;;7.37;6.00;;;;;;;25.20;47.85;96205.25;10548655;28;20222;-79
2023/06/18 10:11:24;;;;;;;8.70;5.82;;;;;;;26.48;44.29;96172.44;10576342;28;20458;-79
2023/06/18 10:16:26;;;;;;;7.13;5.65;;;;;;;27.49;43.29;96187.69;10561547;28;20239;-79
2023/06/18 10:21:28;;;;;;;6.35;5.25;;;;;;;28.51;39.04;96134.13;10560134;28;20217;-79
2023/06/18 10:26:29;;;;;;;6.55;5.38;;;;;;;28.32;41.27;96177.94;10555851;28;20268;-79
2023/06/18 10:31:30;;;;;;;7.80;5.47;;;;;;;28.85;39.12;96139.41;10518667;28;20201;-79
2023/06/18 10:36:30;;;;;;;5.82;4.90;;;;;;;27.90;39.55;96120.09;10518425;28;20232;-80
2023/06/18 10:41:31;;;;;;;8.25;5.47;;;;;;;28.47;40.74;96177.00;10518018;28;20552;-79
2023/06/18 10:46:34;;;;;;;5.77;5.10;;;;;;;27.70;40.55;96132.66;10536671;28;20809;-79
2023/06/18 10:51:34;;;;;;;6.35;4.97;;;;;;;27.35;40.62;96113.00;10535852;28;20440;-79
2023/06/18 10:56:36;;;;;;;6.27;5.13;;;;;;;27.84;40.72;96132.84;10536196;28;20198;-79
2023/06/18 11:01:36;;;;;;;7.13;5.10;;;;;;;25.30;44.15;96116.03;10535546;28;20892;-78
2023/06/18 11:06:38;;;;;;;7.10;5.50;;;;;;;25.64;40.76;96054.66;10535845;28;20257;-78
2023/06/18 11:11:49;;;;;;;6.18;5.57;;;;;;;26.78;39.71;96074.03;10535717;28;20433;-77
2023/06/18 11:17:09;;;;;;;7.53;5.50;;;;;;;28.26;40.68;96149.47;10557153;28;20178;-77
2023/06/18 11:22:10;;;;;;;5.47;4.95;;;;;;;27.69;40.64;96109.53;10542285;28;20241;-77
2023/06/18 11:27:11;;;;;;;5.85;5.10;;;;;;;29.95;36.19;96102.53;10558915;28;20316;-78
2023/06/18 11:32:13;;;;;;;6.10;5.15;;;;;;;28.72;38.02;96081.59;10576246;28;20292;-78
2023/06/18 11:37:13;;;;;;;6.75;4.93;;;;;;;27.91;37.84;96024.81;10575977;28;20347;-77
2023/06/18 11:42:15;;;;;;;5.32;4.65;;;;;;;29.19;38.10;96098.00;10558376;28;20238;-77
2023/06/18 11:47:15;;;;;;;7.68;5.22;;;;;;;29.99;37.10;96098.97;10576362;28;20218;-77
2023/06/18 11:52:18;;;;;;;5.57;5.07;;;;;;;31.35;33.60;96066.28;10576206;28;20189;-77
2023/06/18 11:57:20;;;;;;;7.00;4.53;;;;;;;28.54;36.14;96009.59;10576574;28;20182;-77
2023/06/18 12:02:25;;;;;;;5.40;4.88;;;;;;;29.37;36.08;96047.81;10575353;28;20226;-77
2023/06/18 12:07:27;;;;;;;7.57;4.43;;;;;;;29.61;35.01;96039.63;10576155;28;20838;-77
2023/06/18 12:12:46;;;;;;;5.35;4.75;;;;;;;29.58;36.61;96079.91;10541005;28;20197;-78
2023/06/18 12:18:03;;;;;;;6.72;4.75;;;;;;;30.03;35.19;96054.06;10575996;28;20208;-77
2023/06/18 12:23:05;;;;;;;8.27;4.50;;;;;;;30.62;33.61;96041.88;10575682;28;20300;-77
2023/06/18 12:28:06;;;;;;;7.30;4.68;;;;;;;30.40;34.81;96054.22;10557656;28;20719;-77
2023/06/18 12:33:11;;;;;;;5.45;4.82;;;;;;;30.10;34.67;96050.94;10523556;28;20661;-77
2023/06/18 12:38:12;;;;;;;5.40;4.60;;;;;;;31.12;34.80;96071.69;10575532;28;20202;-77
2023/06/18 12:43:13;;;;;;;8.23;5.03;;;;;;;32.08;33.80;96095.94;10575952;28;20532;-77
2023/06/18 12:48:15;;;;;;;8.15;4.68;;;;;;;30.91;33.58;96017.19;10583295;28;20467;-77
2023/06/18 12:53:20;;;;;;;8.07;4.65;;;;;;;30.68;34.19;96025.25;10582773;28;20602;-78
2023/06/18 12:58:22;;;;;;;7.72;4.10;;;;;;;32.82;30.62;96019.38;10583005;28;20229;-78
2023/06/18 13:03:24;;;;;;;5.75;4.25;;;;;;;31.32;31.61;95988.38;10582351;28;20237;-78
2023/06/18 13:08:25;;;;;;;4.50;4.10;;;;;;;31.43;32.32;96006.00;10582329;28;20308;-78
2023/06/18 13:13:25;;;;;;;5.75;4.32;;;;;;;30.06;33.68;95993.22;10582213;28;20537;-77
2023/06/18 13:18:25;;;;;;;6.20;4.87;;;;;;;30.13;34.22;96009.84;10582181;28;20319;-77
2023/06/18 13:23:26;;;;;;;4.60;4.13;;;;;;;31.38;33.19;96022.34;10582129;28;20818;-77
2023/06/18 13:28:26;;;;;;;7.40;5.00;;;;;;;31.48;32.27;95981.50;10581632;28;20632;-77
2023/06/18 13:33:26;;;;;;;6.10;4.13;;;;;;;31.89;29.75;95945.25;10562915;28;20479;-77
2023/06/18 13:38:27;;;;;;;4.80;4.20;;;;;;;31.08;30.76;95935.41;10563397;28;20524;-77
2023/06/18 13:43:27;;;;;;;4.97;4.03;;;;;;;29.53;33.42;95948.53;10580440;28;20475;-77
2023/06/18 13:48:27;;;;;;;7.00;4.47;;;;;;;31.98;29.48;95951.50;10581212;28;20471;-77
2023/06/18 13:53:28;;;;;;;4.67;3.80;;;;;;;32.57;28.53;95934.09;10580426;28;20220;-77
2023/06/18 13:58:28;;;;;;;3.73;3.37;;;;;;;32.83;26.65;95871.75;10560780;28;20423;-77
2023/06/18 14:03:28;;;;;;;4.30;3.57;;;;;;;32.49;26.98;95883.38;10580071;28;20235;-77
2023/06/18 14:08:29;;;;;;;6.10;3.63;;;;;;;32.04;30.35;95960.28;10579946;28;20824;-77
2023/06/18 14:13:29;;;;;;;4.63;4.20;;;;;;;34.28;28.28;95998.09;10579832;28;20947;-77
2023/06/18 14:18:30;;;;;;;4.30;3.70;;;;;;;35.15;26.31;95986.66;10579651;28;20676;-77
2023/06/18 14:23:39;;;;;;;5.83;4.57;;;;;;;29.97;31.01;95879.69;10579745;28;20691;-78
2023/06/18 14:28:39;;;;;;;4.45;3.67;;;;;;;30.42;32.62;95979.03;10577200;28;20567;-77
2023/06/18 14:33:40;;;;;;;4.18;3.78;;;;;;;33.82;27.43;95969.81;10579014;28;20246;-77
2023/06/18 14:38:40;;;;;;;3.80;3.50;;;;;;;33.41;27.34;95912.22;10578810;28;20417;-77
2023/06/18 14:43:41;;;;;;;5.70;4.22;;;;;;;34.39;26.51;95925.09;10578094;28;20185;-77
2023/06/18 14:48:42;;;;;;;3.80;3.47;;;;;;;35.39;24.33;95919.78;10578932;28;20219;-77
2023/06/18 14:53:48;;;;;;;5.70;3.90;;;;;;;33.32;27.13;95876.94;10577741;28;20684;-77
2023/06/18 14:58:48;;;;;;;4.75;3.65;;;;;;;28.26;33.31;95867.41;10578238;28;20188;-77
2023/06/18 15:03:49;;;;;;;4.87;4.33;;;;;;;27.55;35.03;95947.09;10577374;28;20566;-77
2023/06/18 15:08:49;;;;;;;4.07;3.67;;;;;;;30.83;30.91;95950.28;10577013;28;20557;-77
2023/06/18 15:13:49;;;;;;;5.23;3.60;;;;;;;32.78;28.58;95942.44;10577316;28;20463;-77
2023/06/18 15:18:50;;;;;;;5.10;4.00;;;;;;;34.41;26.49;95959.00;10569463;28;20513;-72
2023/06/18 15:23:51;;;;;;;4.15;3.75;;;;;;;34.19;27.89;95970.13;10576263;28;20435;-73
2023/06/18 15:28:51;;;;;;;4.33;3.93;;;;;;;33.52;28.77;95973.22;10576638;28;20209;-72
2023/06/18 15:33:52;;;;;;;5.93;3.78;;;;;;;34.36;27.63;95989.09;10576124;28;20230;-72
2023/06/18 15:38:52;;;;;;;6.00;4.30;;;;;;;34.55;27.81;95985.13;10576232;28;20262;-72
2023/06/18 15:43:52;;;;;;;5.33;3.87;;;;;;;35.41;26.43;95969.31;10576207;28;20193;-72
2023/06/18 15:48:53;;;;;;;5.77;4.30;;;;;;;34.12;27.22;95938.00;10576183;28;20307;-72
2023/06/18 15:53:54;;;;;;;4.60;4.13;;;;;;;33.44;28.39;95941.44;10575945;28;20801;-73
2023/06/18 15:58:55;;;;;;;4.07;3.60;;;;;;;33.34;27.41;95912.72;10575853;28;20198;-72
2023/06/18 16:03:56;;;;;;;5.45;4.07;;;;;;;31.49;30.62;95920.84;10575642;28;20531;-72
2023/06/18 16:08:57;;;;;;;5.50;4.95;;;;;;;31.50;30.46;95918.91;10575559;28;20219;-73
2023/06/18 16:14:00;;;;;;;5.50;4.57;;;;;;;30.46;32.12;95923.28;10575286;28;20193;-73
2023/06/18 16:19:00;;;;;;;5.00;3.90;;;;;;;30.38;31.96;95927.47;10577334;28;20434;-72
2023/06/18 16:24:01;;;;;;;4.60;4.20;;;;;;;28.74;33.87;95919.59;10583407;28;20190;-72
2023/06/18 16:29:01;;;;;;;8.63;4.13;;;;;;;29.53;32.65;95921.56;10583862;28;20501;-72
2023/06/18 16:34:02;;;;;;;4.73;4.13;;;;;;;29.33;32.71;95920.03;10583062;28;20290;-72
2023/06/18 16:39:02;;;;;;;4.60;3.80;;;;;;;28.98;34.24;95944.53;10583023;28;20455;-73
2023/06/18 16:44:03;;;;;;;7.03;4.45;;;;;;;27.88;35.28;95941.94;10564827;28;20424;-72
2023/06/18 16:49:03;;;;;;;5.18;4.35;;;;;;;28.01;35.16;95946.66;10582821;28;20210;-72
2023/06/18 16:54:04;;;;;;;4.83;4.33;;;;;;;27.86;35.54;95952.19;10582101;28;20552;-72
2023/06/18 16:59:05;;;;;;;4.80;4.18;;;;;;;26.89;38.07;95984.19;10582294;28;20813;-72
2023/06/18 17:04:06;;;;;;;7.38;4.55;;;;;;;26.90;37.08;95963.50;10581128;28;20261;-72
2023/06/18 17:09:06;;;;;;;5.90;4.70;;;;;;;26.44;38.22;95980.66;10582033;28;20720;-72
2023/06/18 17:14:06;;;;;;;6.75;5.18;;;;;;;26.45;39.28;96020.66;10582172;28;20190;-72
2023/06/18 17:19:07;;;;;;;6.97;5.50;;;;;;;25.79;42.09;96061.91;10581704;28;20236;-72
2023/06/18 17:24:07;;;;;;;5.55;4.93;;;;;;;25.49;43.30;96084.97;10581185;28;20196;-72
2023/06/18 17:29:08;;;;;;;10.90;5.53;;;;;;;25.34;41.76;96047.41;10581079;28;20708;-72
2023/06/18 17:34:09;;;;;;;7.22;5.60;;;;;;;24.98;44.68;96099.06;10580383;28;21243;-72
2023/06/18 17:39:10;;;;;;;7.30;5.53;;;;;;;24.81;45.90;96119.88;10580862;28;20630;-73
2023/06/18 17:44:10;;;;;;;6.20;5.65;;;;;;;24.42;45.81;96112.19;10581004;28;20193;-73
2023/06/18 17:49:11;;;;;;;7.43;4.97;;;;;;;24.60;45.31;96102.94;10561910;28;20233;-73
2023/06/18 17:54:12;;;;;;;8.38;5.47;;;;;;;24.53;46.40;96120.03;10580278;28;20587;-73
2023/06/18 17:59:13;;;;;;;6.80;6.10;;;;;;;24.20;47.95;96148.72;10580141;28;20186;-73
2023/06/18 18:04:13;;;;;;;6.05;5.45;;;;;;;24.19;48.23;96157.81;10579883;28;20230;-73
2023/06/18 18:09:14;;;;;;;6.88;4.93;;;;;;;24.19;47.67;96157.81;10580174;28;20222;-73
2023/06/18 18:14:14;;;;;;;6.43;5.82;;;;;;;23.84;50.17;96188.59;10579004;28;20260;-73
2023/06/18 18:19:14;;;;;;;6.22;5.63;;;;;;;23.45;51.58;96212.78;10579145;28;20181;-73
2023/06/18 18:24:15;;;;;;;7.05;5.75;;;;;;;22.79;54.64;96239.47;10573456;28;20273;-73
2023/06/18 18:29:15;;;;;;;7.05;6.35;;;;;;;21.91;58.35;96288.75;10567298;28;20214;-73
2023/06/18 18:34:16;;;;;;;11.75;7.07;;;;;;;19.99;65.25;96339.03;10568256;28;20259;-72
2023/06/18 18:39:16;;;;;;;8.57;7.00;;;;;;;20.34;64.24;96309.03;10567390;28;20213;-72
2023/06/18 18:44:17;;;;;;;9.98;6.97;;;;;;;19.56;66.77;96319.50;10566654;28;20642;-73
2023/06/18 18:49:17;;;;;;;8.30;6.63;;;;;;;18.97;70.44;96324.41;10567764;28;20358;-73
2023/06/18 18:54:18;;;;;;;9.77;7.10;;;;;;;18.68;72.89;96329.34;10570228;28;20194;-73
2023/06/18 18:59:19;;;;;;;7.40;6.40;;;;;;;18.25;75.09;96340.69;10566881;28;20198;-73
2023/06/18 19:04:19;;;;;;;9.93;6.82;;;;;;;18.35;74.37;96330.44;10565070;28;20250;-73
2023/06/18 19:09:19;;;;;;;8.93;7.30;;;;;;;17.62;75.68;96332.41;10546838;28;20409;-73
2023/06/18 19:14:20;;;;;;;8.50;7.25;;;;;;;17.59;75.82;96342.63;10566164;28;20207;-73
2023/06/18 19:19:20;;;;;;;10.77;7.38;;;;;;;17.40;76.64;96345.16;10566584;28;20186;-73
2023/06/18 19:24:21;;;;;;;10.38;7.50;;;;;;;17.25;77.43;96357.81;10567042;28;20186;-73
2023/06/18 19:29:21;;;;;;;9.93;7.60;;;;;;;17.07;77.39;96353.97;10566765;28;20214;-73
2023/06/18 19:34:22;;;;;;;9.32;6.97;;;;;;;16.79;79.46;96372.72;10566063;28;20284;-73
2023/06/18 19:39:23;;;;;;;9.63;6.75;;;;;;;16.78;79.19;96373.72;10565540;28;20247;-73
2023/06/18 19:44:24;;;;;;;7.13;6.43;;;;;;;16.69;79.08;96374.94;10565152;28;20239;-72
2023/06/18 19:49:24;;;;;;;8.13;7.00;;;;;;;16.52;79.56;96379.81;10573458;28;20317;-72
2023/06/18 19:54:24;;;;;;;10.40;6.43;;;;;;;16.34;80.27;96381.22;10573144;28;20268;-72
2023/06/18 19:59:25;;;;;;;10.07;7.30;;;;;;;16.19;81.63;96384.03;10572664;28;20189;-72
2023/06/18 20:04:25;;;;;;;11.35;6.60;;;;;;;16.12;81.25;96379.75;10572710;28;20225;-72
2023/06/18 20:09:27;;;;;;;9.13;6.60;;;;;;;16.04;81.56;96388.69;10566099;28;20222;-72
2023/06/18 20:14:27;;;;;;;9.15;7.10;;;;;;;16.06;81.14;96386.66;10566941;28;20190;-72
2023/06/18 20:19:28;;;;;;;11.50;6.65;;;;;;;15.95;81.44;96384.59;10562967;28;20636;-72
2023/06/18 20:24:28;;;;;;;10.48;6.90;;;;;;;15.91;81.99;96388.63;10568330;28;20624;-72
2023/06/18 20:29:28;;;;;;;9.88;7.60;;;;;;;15.70;82.95;96400.94;10566520;28;20554;-72
2023/06/18 20:34:29;;;;;;;8.15;7.22;;;;;;;15.58;83.99;96395.38;10567179;28;20194;-72
2023/06/18 20:39:29;;;;;;;11.88;6.93;;;;;;;15.63;83.90;96403.53;10568624;28;20212;-72
2023/06/18 20:44:30;;;;;;;8.35;7.47;;;;;;;15.44;84.85;96402.41;10562772;28;20208;-72
2023/06/18 20:49:30;;;;;;;8.10;6.68;;;;;;;15.29;86.20;96407.81;10568033;28;20583;-72
2023/06/18 20:54:31;;;;;;;11.02;7.47;;;;;;;15.22;86.88;96400.84;10570870;28;20543;-72
2023/06/18 20:59:31;;;;;;;9.93;6.57;;;;;;;15.12;87.62;96406.50;10551495;28;20190;-73
2023/06/18 21:04:31;;;;;;;7.75;6.93;;;;;;;14.78;89.94;96418.63;10570736;28;20244;-72
2023/06/18 21:09:32;;;;;;;9.90;7.65;;;;;;;14.65;91.86;96413.22;10577362;28;20603;-72
2023/06/18 21:14:32;;;;;;;9.30;7.13;;;;;;;14.60;92.32;96414.59;10578977;28;20555;-71
2023/06/18 21:20:10;;;;;;;8.70;7.03;;;;;;;14.59;93.07;96415.59;10578401;27;20277;-72
2023/06/18 21:25:10;;;;;;;7.70;6.88;;;;;;;14.47;94.16;96411.78;10579271;28;20394;-72
2023/06/18 21:30:11;;;;;;;8.30;6.70;;;;;;;14.44;94.32;96420.09;10579426;28;20246;-72
2023/06/18 21:35:11;;;;;;;10.00;7.53;;;;;;;14.39;94.66;96425.91;10579055;28;20177;-72
2023/06/18 21:40:13;;;;;;;8.35;7.50;;;;;;;14.30;95.38;96419.13;10578584;28;20208;-72
2023/06/18 21:45:13;;;;;;;10.90;7.93;;;;;;;14.23;95.99;96411.16;10578853;28;20194;-72
2023/06/18 21:50:13;;;;;;;9.02;7.75;;;;;;;14.08;97.28;96419.09;10578835;28;20585;-72
2023/06/18 21:55:14;;;;;;;11.43;7.72;;;;;;;14.07;98.15;96424.56;10578778;28;20581;-72
2023/06/18 22:00:16;;;;;;;9.82;7.57;;;;;;;14.02;98.74;96426.94;10578280;28;20268;-72
2023/06/18 22:05:16;;;;;;;8.13;7.30;;;;;;;13.93;99.71;96430.69;10578425;28;20290;-72
2023/06/18 22:10:17;;;;;;;9.38;7.68;;;;;;;13.84;100.00;96428.19;10577840;28;20681;-72
2023/06/18 22:15:17;;;;;;;10.55;7.78;;;;;;;13.77;100.00;96429.06;10578200;28;20649;-72
2023/06/18 22:20:17;;;;;;;9.25;7.65;;;;;;;13.66;100.00;96422.44;10576718;28;20649;-72
2023/06/18 22:25:18;;;;;;;9.15;7.60;;;;;;;13.61;100.00;96424.81;10577950;28;20277;-72
2023/06/18 22:30:18;;;;;;;9.02;7.60;;;;;;;13.59;100.00;96430.28;10577298;28;20685;-72
2023/06/18 22:35:18;;;;;;;11.32;8.52;;;;;;;13.42;100.00;96429.63;10577541;28;20715;-74
2023/06/18 22:40:19;;;;;;;8.50;7.43;;;;;;;13.47;100.00;96419.38;10576615;28;20563;-72
2023/06/18 22:45:23;;;;;;;8.65;7.25;;;;;;;13.47;100.00;96419.38;10576951;28;20547;-71
2023/06/18 22:50:24;;;;;;;10.35;8.38;;;;;;;13.42;100.00;96415.69;10576882;28;20249;-72
2023/06/18 22:55:25;;;;;;;9.15;8.15;;;;;;;13.31;100.00;96419.56;10576244;28;20192;-72
2023/06/18 23:00:25;;;;;;;8.95;7.85;;;;;;;13.29;100.00;96424.16;10576662;28;20193;-71
2023/06/18 23:05:25;;;;;;;11.52;8.45;;;;;;;13.36;100.00;96418.03;10576195;28;20244;-73
2023/06/18 23:10:26;;;;;;;10.60;8.18;;;;;;;13.35;100.00;96411.16;10575674;28;20618;-74
2023/06/18 23:15:26;;;;;;;12.77;8.40;;;;;;;13.30;100.00;96410.00;10576402;28;20547;-74
2023/06/18 23:20:29;;;;;;;12.30;7.53;;;;;;;13.36;100.00;96411.94;10574984;28;20680;-73